Time;durP1;ratioP1;P1;durP2;ratioP2;P2;SDS_P1;SDS_P2;PMS_P1;PMS_P2;Temp;Humidity;BMP_temperature;BMP_pressure;BME280_temperature;BME280_humidity;BME280_pressure;Samples;Min_cycle;Max_cycle;Signal;HPM_P1;HPM_P2
2022/07/26 00:00:50;;;;;;;8.65;3.15;;;;;;;17.21;76.59;101284.47;5089006;28;20021;-71
2022/07/26 00:03:15;;;;;;;7.95;2.50;;;;;;;17.19;76.85;101265.22;5092568;28;20047;-72
2022/07/26 00:05:41;;;;;;;6.05;2.08;;;;;;;17.34;76.62;101289.22;5094114;28;20169;-72
2022/07/26 00:08:09;;;;;;;6.60;2.38;;;;;;;17.35;76.50;101291.75;5093888;28;20020;-71
2022/07/26 00:10:36;;;;;;;6.07;2.13;;;;;;;17.38;76.39;101294.25;5093877;28;20032;-72
2022/07/26 00:13:01;;;;;;;6.22;2.17;;;;;;;17.37;76.18;101295.19;5091266;28;20479;-72
2022/07/26 00:15:26;;;;;;;4.93;1.90;;;;;;;17.40;76.24;101295.06;5093898;28;20024;-71
2022/07/26 00:17:51;;;;;;;8.50;2.13;;;;;;;17.41;76.43;101298.53;5093868;28;20039;-71
2022/07/26 00:20:17;;;;;;;5.75;2.17;;;;;;;17.39;76.23;101293.31;5091311;28;20103;-71
2022/07/26 00:22:42;;;;;;;8.48;2.10;;;;;;;17.39;76.14;101293.31;5088391;28;20494;-72
2022/07/26 00:25:08;;;;;;;5.57;2.25;;;;;;;17.35;76.65;101290.91;5093808;28;20044;-71
2022/07/26 00:27:35;;;;;;;7.82;2.08;;;;;;;17.35;76.59;101291.75;5091847;28;20016;-71
2022/07/26 00:30:01;;;;;;;5.70;2.00;;;;;;;17.35;76.75;101301.44;5092994;28;20491;-71
2022/07/26 00:32:26;;;;;;;7.00;2.03;;;;;;;17.32;77.17;101297.16;5093102;28;20031;-71
2022/07/26 00:34:52;;;;;;;6.28;2.10;;;;;;;17.35;77.19;101307.56;5093135;28;20028;-72
2022/07/26 00:37:17;;;;;;;6.63;2.00;;;;;;;17.30;76.99;101304.31;5089725;28;20031;-71
2022/07/26 00:39:42;;;;;;;8.13;2.15;;;;;;;17.32;77.16;101299.78;5092968;28;20562;-71
2022/07/26 00:42:08;;;;;;;8.30;1.95;;;;;;;17.35;76.76;101299.66;5090989;28;20491;-71
2022/07/26 00:44:41;;;;;;;6.03;2.10;;;;;;;17.35;77.23;101301.44;5093844;28;20035;-71
2022/07/26 00:47:07;;;;;;;;;;;;;;;17.45;75.05;101308.88;5094306;28;20065;-71
2022/07/26 00:49:32;;;;;;;6.47;1.83;;;;;;;17.41;76.92;101307.31;5092045;28;20329;-71
2022/07/26 00:51:57;;;;;;;5.95;2.17;;;;;;;17.43;76.95;101297.56;5079589;28;20028;-71
2022/07/26 00:54:23;;;;;;;7.25;2.17;;;;;;;17.48;76.79;101300.81;5090142;28;20024;-71
2022/07/26 00:56:48;;;;;;;9.20;2.70;;;;;;;17.44;77.30;101307.16;5090488;28;20101;-72
2022/07/26 00:59:14;;;;;;;6.28;2.45;;;;;;;17.49;76.98;101305.19;5092448;28;20028;-71
2022/07/26 01:01:39;;;;;;;5.75;2.10;;;;;;;17.47;77.88;101300.91;5090273;28;20119;-71
2022/07/26 01:04:04;;;;;;;7.22;2.05;;;;;;;17.46;77.19;101304.44;5081177;28;20502;-71
2022/07/26 01:06:30;;;;;;;11.63;3.13;;;;;;;17.44;77.51;101291.34;5091740;28;20082;-71
2022/07/26 01:08:58;;;;;;;7.15;2.75;;;;;;;17.47;76.85;101304.41;5087356;28;20016;-71
2022/07/26 01:11:23;;;;;;;7.07;2.05;;;;;;;17.44;77.93;101291.34;5091259;28;20024;-71
2022/07/26 01:13:49;;;;;;;6.32;2.00;;;;;;;17.42;77.38;101298.47;5093320;28;20123;-71
2022/07/26 01:16:15;;;;;;;7.97;2.38;;;;;;;17.50;77.28;101296.34;5092125;28;20036;-71
2022/07/26 01:18:41;;;;;;;8.90;2.10;;;;;;;17.46;78.05;101299.19;5091967;28;20073;-71
2022/07/26 01:21:09;;;;;;;11.32;2.45;;;;;;;17.45;77.24;101293.06;5090355;28;20020;-72
2022/07/26 01:23:35;;;;;;;5.68;2.30;;;;;;;17.40;78.60;101289.78;5088662;28;20035;-72
2022/07/26 01:26:01;;;;;;;7.20;2.28;;;;;;;17.41;78.28;101288.84;5086961;28;20039;-71
2022/07/26 01:28:26;;;;;;;9.57;2.75;;;;;;;17.46;77.96;101286.88;5092748;28;20376;-71
2022/07/26 01:30:51;;;;;;;9.18;2.22;;;;;;;17.50;78.01;101282.31;5090838;28;20478;-71
2022/07/26 01:33:16;;;;;;;6.40;2.35;;;;;;;17.50;78.22;101285.81;5092647;28;20035;-71
2022/07/26 01:35:42;;;;;;;8.55;2.72;;;;;;;17.52;78.34;101278.66;5090079;28;20028;-71
2022/07/26 01:38:07;;;;;;;8.05;2.33;;;;;;;17.53;78.90;101279.53;5084205;28;20036;-71
2022/07/26 01:40:32;;;;;;;6.43;2.45;;;;;;;17.49;79.37;101284.09;5089212;28;20048;-71
2022/07/26 01:42:58;;;;;;;7.75;2.08;;;;;;;17.46;79.35;101280.72;5091546;28;20043;-71
2022/07/26 01:45:23;;;;;;;8.30;2.95;;;;;;;17.49;79.25;101286.75;5090674;28;20131;-71
2022/07/26 01:47:49;;;;;;;9.27;2.95;;;;;;;17.53;79.47;101290.09;5092019;28;20024;-71
2022/07/26 01:50:15;;;;;;;10.52;2.92;;;;;;;17.47;79.33;101295.63;5089787;28;20073;-71
2022/07/26 01:52:40;;;;;;;10.95;3.08;;;;;;;17.47;79.07;101298.28;5083848;28;20028;-71
2022/07/26 01:55:06;;;;;;;6.90;3.10;;;;;;;17.38;80.23;101296.91;5087372;28;20073;-71
2022/07/26 01:57:32;;;;;;;7.40;2.42;;;;;;;17.37;80.50;101300.47;5088165;28;20479;-71
2022/07/26 01:59:57;;;;;;;10.63;2.72;;;;;;;17.41;80.30;101294.13;5089633;28;20039;-71
2022/07/26 02:02:23;;;;;;;10.63;3.10;;;;;;;17.43;80.12;101300.19;5091711;28;20493;-71
2022/07/26 02:04:57;;;;;;;9.32;3.30;;;;;;;17.41;80.00;101302.03;5084950;28;20047;-71
2022/07/26 02:07:23;;;;;;;8.05;2.80;;;;;;;17.39;80.76;101297.75;5087974;28;20031;-71
2022/07/26 02:09:48;;;;;;;8.63;2.85;;;;;;;17.39;81.33;101295.97;5089144;28;20039;-71
2022/07/26 02:12:14;;;;;;;8.48;2.90;;;;;;;17.36;80.88;101298.72;5085502;28;20032;-71
2022/07/26 02:14:39;;;;;;;8.27;2.88;;;;;;;17.39;81.68;101303.00;5091110;28;20028;-71
2022/07/26 02:17:04;;;;;;;11.30;3.25;;;;;;;17.40;81.68;101299.47;5089690;28;20028;-71
2022/07/26 02:19:30;;;;;;;9.02;2.70;;;;;;;17.35;81.48;101296.19;5092409;28;20020;-71
2022/07/26 02:21:56;;;;;;;12.45;2.90;;;;;;;17.33;81.48;101301.53;5082870;28;20081;-71
2022/07/26 02:24:21;;;;;;;8.50;3.28;;;;;;;17.36;82.24;101289.97;5090725;28;20145;-71
2022/07/26 02:26:46;;;;;;;10.98;3.28;;;;;;;17.35;81.97;101299.66;5089056;28;20020;-71
2022/07/26 02:29:12;;;;;;;11.70;2.88;;;;;;;17.33;82.20;101306.81;5084790;28;20047;-72
2022/07/26 02:31:37;;;;;;;9.20;2.83;;;;;;;17.25;81.88;101298.38;5086583;28;20024;-72
2022/07/26 02:34:02;;;;;;;10.77;3.58;;;;;;;17.28;82.18;101301.72;5090105;28;20032;-71
2022/07/26 02:36:27;;;;;;;9.13;3.22;;;;;;;17.21;82.88;101302.06;5090576;28;20030;-71
2022/07/26 02:38:53;;;;;;;11.07;3.10;;;;;;;17.17;83.34;101308.41;5087971;28;20471;-71
2022/07/26 02:41:18;;;;;;;8.93;2.88;;;;;;;17.19;83.61;101307.38;5090359;28;20085;-71
2022/07/26 02:43:43;;;;;;;9.48;3.15;;;;;;;17.19;83.68;101317.91;5088471;28;20027;-71
2022/07/26 02:46:09;;;;;;;9.32;3.20;;;;;;;17.20;83.61;101313.50;5078899;28;20024;-71
2022/07/26 02:48:34;;;;;;;12.13;3.80;;;;;;;17.20;83.70;101318.78;5089264;28;20476;-71
2022/07/26 02:51:00;;;;;;;13.45;3.90;;;;;;;17.19;83.21;101315.28;5086645;28;20059;-71
2022/07/26 02:53:25;;;;;;;7.47;2.92;;;;;;;17.18;83.90;101316.22;5091154;28;20379;-71
2022/07/26 02:55:50;;;;;;;11.13;3.22;;;;;;;17.20;83.51;101317.03;5088631;28;20055;-72
2022/07/26 02:58:16;;;;;;;11.90;3.33;;;;;;;17.18;83.57;101315.38;5091875;28;20027;-72
2022/07/26 03:00:41;;;;;;;12.45;3.42;;;;;;;17.21;83.66;101323.13;5087222;28;20380;-71
2022/07/26 03:03:07;;;;;;;10.55;3.42;;;;;;;17.22;84.34;101330.97;5089751;28;20071;-71
2022/07/26 03:05:32;;;;;;;8.70;3.40;;;;;;;17.23;84.40;101335.34;5091758;28;20032;-71
2022/07/26 03:07:57;;;;;;;15.15;3.78;;;;;;;17.15;84.82;101324.25;5087481;28;20112;-71
2022/07/26 03:10:23;;;;;;;11.13;3.33;;;;;;;17.16;85.13;101327.75;5089692;28;20949;-72
2022/07/26 03:12:48;;;;;;;12.00;3.55;;;;;;;17.15;84.58;101333.94;5089826;28;20032;-72
2022/07/26 03:15:13;;;;;;;14.30;3.42;;;;;;;17.19;84.80;101333.72;5090399;28;20031;-71
2022/07/26 03:17:39;;;;;;;11.73;4.00;;;;;;;17.17;84.75;101334.75;5089967;28;20047;-72
2022/07/26 03:20:04;;;;;;;12.52;3.75;;;;;;;17.16;85.44;101331.22;5091565;28;20028;-71
2022/07/26 03:22:30;;;;;;;14.32;3.80;;;;;;;17.19;85.50;101346.06;5086209;28;20373;-71
2022/07/26 03:24:55;;;;;;;14.48;3.85;;;;;;;17.20;85.24;101345.13;5086351;28;20032;-71
2022/07/26 03:27:20;;;;;;;13.90;4.10;;;;;;;17.19;85.68;101348.69;5089986;28;20024;-72
2022/07/26 03:29:45;;;;;;;12.80;4.00;;;;;;;17.19;85.88;101346.91;5086198;28;20028;-72
2022/07/26 03:32:11;;;;;;;14.32;4.03;;;;;;;17.20;85.93;101353.03;5089594;28;20039;-72
2022/07/26 03:34:36;;;;;;;15.05;3.45;;;;;;;17.23;85.61;101355.53;5088372;28;20066;-72
2022/07/26 03:37:03;;;;;;;11.88;3.75;;;;;;;17.23;85.77;101355.53;5089540;28;20029;-71
2022/07/26 03:39:28;;;;;;;12.43;3.92;;;;;;;17.23;86.48;101351.16;5091139;28;20028;-72
2022/07/26 03:41:54;;;;;;;12.02;3.92;;;;;;;17.18;86.21;101360.16;5089931;28;20026;-71
2022/07/26 03:44:19;;;;;;;17.10;4.88;;;;;;;17.19;86.38;101365.34;5083038;28;20074;-72
2022/07/26 03:46:44;;;;;;;13.00;4.13;;;;;;;17.13;86.54;101355.06;5079398;28;20063;-71
2022/07/26 03:49:10;;;;;;;15.80;4.15;;;;;;;17.13;86.68;101354.22;5090395;28;20028;-71
2022/07/26 03:51:35;;;;;;;10.15;4.68;;;;;;;17.17;86.59;101358.47;5087320;28;20012;-71
2022/07/26 03:54:00;;;;;;;19.33;4.32;;;;;;;17.18;87.11;101358.38;5090991;28;20035;-71
2022/07/26 03:56:32;;;;;;;17.27;4.53;;;;;;;17.16;87.08;101364.63;5088073;28;20433;-71
2022/07/26 03:59:00;;;;;;;17.63;4.63;;;;;;;17.13;87.03;101367.38;5090078;28;20020;-71
2022/07/26 04:01:25;;;;;;;14.32;4.80;;;;;;;17.14;87.50;101371.75;5086758;28;20130;-71
2022/07/26 04:03:51;;;;;;;12.48;4.00;;;;;;;17.11;87.89;101377.16;5090635;28;20515;-71
2022/07/26 04:06:16;;;;;;;11.73;4.15;;;;;;;17.14;87.69;101374.38;5089041;28;20069;-71
2022/07/26 04:08:42;;;;;;;15.85;4.28;;;;;;;17.12;87.59;101373.59;5087688;28;20475;-71
2022/07/26 04:11:07;;;;;;;12.18;3.80;;;;;;;17.15;87.20;101369.03;5081190;28;20067;-71
2022/07/26 04:13:34;;;;;;;13.48;4.15;;;;;;;17.18;87.79;101375.97;5089607;28;20119;-71
2022/07/26 04:15:59;;;;;;;15.18;4.25;;;;;;;17.18;87.73;101373.34;5089699;28;20364;-71
2022/07/26 04:18:25;;;;;;;14.98;4.18;;;;;;;17.20;87.59;101366.19;5079776;28;20039;-71
2022/07/26 04:20:50;;;;;;;14.48;5.05;;;;;;;17.20;87.75;101366.19;5078660;28;20086;-71
2022/07/26 04:23:15;;;;;;;12.15;4.28;;;;;;;17.24;86.97;101376.56;5094224;28;20063;-71
2022/07/26 04:25:41;;;;;;;12.27;3.45;;;;;;;17.25;87.45;101380.91;5093897;28;20024;-71
2022/07/26 04:28:06;;;;;;;12.88;4.15;;;;;;;17.29;87.32;101389.53;5080208;28;20033;-72
2022/07/26 04:30:31;;;;;;;12.52;3.95;;;;;;;17.37;87.46;101386.59;5094234;28;20024;-72
2022/07/26 04:32:57;;;;;;;11.35;4.53;;;;;;;17.36;87.40;101382.22;5088898;28;20111;-72
2022/07/26 04:35:22;;;;;;;17.50;4.50;;;;;;;17.36;87.40;101392.75;5091398;28;20035;-71
2022/07/26 04:37:47;;;;;;;13.02;4.75;;;;;;;17.33;87.38;101391.13;5092008;28;20024;-71
2022/07/26 04:40:18;;;;;;;16.88;4.90;;;;;;;17.30;87.80;101399.16;5093457;28;20024;-72
2022/07/26 04:42:44;;;;;;;16.08;3.95;;;;;;;17.27;87.35;101397.50;5086835;28;20117;-72
2022/07/26 04:45:11;;;;;;;13.50;4.35;;;;;;;17.31;87.25;101388.53;5093175;28;20137;-72
2022/07/26 04:47:40;;;;;;;13.05;4.47;;;;;;;17.28;88.48;101393.09;5091064;28;20024;-72
2022/07/26 04:50:05;;;;;;;11.05;4.30;;;;;;;17.28;87.67;101393.94;5089900;28;20498;-71
2022/07/26 04:52:31;;;;;;;13.23;4.03;;;;;;;17.29;88.38;101392.16;5088097;28;20063;-72
2022/07/26 04:54:56;;;;;;;11.65;3.90;;;;;;;17.26;88.33;101392.28;5090748;28;20032;-71
2022/07/26 04:57:22;;;;;;;14.73;4.68;;;;;;;17.21;87.52;101391.66;5089334;28;20046;-72
2022/07/26 04:59:47;;;;;;;15.20;5.25;;;;;;;17.16;88.62;101399.72;5083418;28;20028;-71
2022/07/26 05:02:13;;;;;;;14.90;4.93;;;;;;;17.16;88.56;101406.78;5089246;28;20027;-71
2022/07/26 05:04:40;;;;;;;18.20;4.90;;;;;;;17.11;88.88;101395.59;5093673;28;20454;-71
2022/07/26 05:07:05;;;;;;;13.98;5.35;;;;;;;17.07;89.49;101406.25;5088906;28;20144;-72
2022/07/26 05:09:31;;;;;;;17.00;4.50;;;;;;;17.02;89.27;101402.94;5092202;28;20202;-71
2022/07/26 05:11:56;;;;;;;15.65;4.70;;;;;;;17.00;90.00;101412.69;5090517;28;20056;-71
2022/07/26 05:14:21;;;;;;;13.68;5.38;;;;;;;17.04;89.92;101413.44;5091445;28;20024;-71
2022/07/26 05:16:46;;;;;;;11.52;4.82;;;;;;;17.02;89.87;101413.47;5090880;28;20063;-72
2022/07/26 05:19:12;;;;;;;14.75;5.22;;;;;;;17.08;89.80;101418.50;5093034;28;20089;-71
2022/07/26 05:21:38;;;;;;;14.48;5.15;;;;;;;17.07;89.86;101413.31;5091108;28;20043;-71
2022/07/26 05:24:03;;;;;;;14.50;4.53;;;;;;;17.12;90.76;101421.00;5091563;28;20036;-71
2022/07/26 05:26:29;;;;;;;16.25;4.60;;;;;;;17.13;90.68;101423.56;5091594;28;20463;-71
2022/07/26 05:28:54;;;;;;;16.05;5.10;;;;;;;17.21;90.42;101428.53;5087874;28;20027;-71
2022/07/26 05:31:20;;;;;;;11.88;5.07;;;;;;;17.23;90.42;101435.47;5089755;28;20045;-71
2022/07/26 05:33:45;;;;;;;18.50;5.40;;;;;;;17.28;89.67;101437.88;5085044;28;20471;-71
2022/07/26 05:36:10;;;;;;;14.73;5.00;;;;;;;17.32;89.76;101434.19;5090539;28;20491;-71
2022/07/26 05:38:36;;;;;;;16.35;5.20;;;;;;;17.34;89.41;101426.25;5079721;28;20111;-72
2022/07/26 05:41:01;;;;;;;12.30;4.47;;;;;;;17.43;89.52;101428.47;5092667;28;20024;-72
2022/07/26 05:43:27;;;;;;;13.05;4.95;;;;;;;17.51;89.03;101429.00;5092342;28;20486;-71
2022/07/26 05:45:53;;;;;;;18.02;5.00;;;;;;;17.62;88.73;101433.81;5087966;28;20028;-72
2022/07/26 05:48:18;;;;;;;10.63;4.40;;;;;;;17.75;88.34;101438.47;5085009;28;20419;-72
2022/07/26 05:50:43;;;;;;;11.27;4.78;;;;;;;17.96;86.86;101436.72;5088590;28;20437;-71
2022/07/26 05:53:09;;;;;;;14.35;4.78;;;;;;;18.12;85.33;101436.03;5092244;28;20528;-72
2022/07/26 05:55:34;;;;;;;10.68;4.30;;;;;;;18.12;84.50;101441.31;5090115;28;20016;-72
2022/07/26 05:57:59;;;;;;;11.50;4.80;;;;;;;18.15;85.65;101446.44;5090931;28;20028;-71
2022/07/26 06:00:24;;;;;;;14.75;5.18;;;;;;;18.31;85.10;101446.56;5091377;28;20031;-72
2022/07/26 06:02:50;;;;;;;10.80;4.15;;;;;;;18.50;83.54;101436.88;5089614;28;20043;-72
2022/07/26 06:05:15;;;;;;;14.10;4.70;;;;;;;18.51;82.55;101448.28;5086822;28;20115;-72
2022/07/26 06:07:40;;;;;;;11.25;4.38;;;;;;;18.35;81.02;101446.38;5092561;28;20024;-72
2022/07/26 06:10:06;;;;;;;11.10;4.30;;;;;;;18.23;82.41;101445.16;5091845;28;20066;-71
2022/07/26 06:12:31;;;;;;;17.13;4.43;;;;;;;18.25;83.07;101450.38;5097162;28;20111;-71
2022/07/26 06:14:57;;;;;;;12.40;5.18;;;;;;;18.25;82.85;101453.00;5093098;28;20522;-71
2022/07/26 06:17:22;;;;;;;11.40;4.90;;;;;;;18.28;82.89;101454.63;5090303;28;20383;-71
2022/07/26 06:19:47;;;;;;;13.50;4.30;;;;;;;18.31;82.80;101458.00;5091405;28;20034;-71
2022/07/26 06:22:13;;;;;;;12.57;4.63;;;;;;;18.37;82.44;101457.69;5092342;28;20380;-71
2022/07/26 06:24:38;;;;;;;12.57;5.07;;;;;;;18.40;81.88;101468.13;5092266;28;20106;-72
2022/07/26 06:27:03;;;;;;;12.77;5.57;;;;;;;18.46;81.21;101467.84;5091854;28;20489;-71
2022/07/26 06:29:29;;;;;;;12.15;5.30;;;;;;;18.46;79.30;101459.91;5091698;28;20020;-71
2022/07/26 06:31:54;;;;;;;14.05;4.70;;;;;;;18.52;80.83;101465.84;5091776;28;20031;-71
2022/07/26 06:34:19;;;;;;;12.15;4.65;;;;;;;18.54;80.27;101459.59;5091259;28;20020;-72
2022/07/26 06:36:45;;;;;;;9.68;4.90;;;;;;;18.65;79.13;101459.06;5083271;28;20024;-71
2022/07/26 06:39:10;;;;;;;13.30;4.50;;;;;;;18.76;79.96;101462.06;5091095;28;20047;-71
2022/07/26 06:41:36;;;;;;;13.38;4.88;;;;;;;18.79;79.88;101463.72;5091147;28;20016;-71
2022/07/26 06:44:02;;;;;;;10.25;4.60;;;;;;;18.79;79.72;101463.72;5090085;28;20040;-70
2022/07/26 06:46:27;;;;;;;12.38;5.25;;;;;;;18.84;79.47;101467.84;5090681;28;20020;-72
2022/07/26 06:48:54;;;;;;;11.75;4.85;;;;;;;18.88;78.06;101468.56;5091007;28;20077;-72
2022/07/26 06:51:19;;;;;;;8.77;4.15;;;;;;;18.92;78.70;101462.19;5089979;28;20031;-73
2022/07/26 06:53:45;;;;;;;16.10;4.68;;;;;;;18.95;79.14;101472.63;5091426;28;20024;-72
2022/07/26 06:56:13;;;;;;;11.13;4.40;;;;;;;18.93;78.30;101471.81;5090629;28;20062;-72
2022/07/26 06:58:39;;;;;;;13.80;4.47;;;;;;;18.93;78.35;101472.72;5091617;28;20032;-72
2022/07/26 07:01:04;;;;;;;8.63;3.90;;;;;;;19.05;77.12;101478.31;5085686;28;20020;-72
2022/07/26 07:03:29;;;;;;;8.57;3.85;;;;;;;19.13;77.15;101489.38;5085059;28;20039;-72
2022/07/26 07:05:54;;;;;;;11.77;3.70;;;;;;;19.16;75.66;101482.16;5082712;28;20028;-72
2022/07/26 07:08:21;;;;;;;9.80;3.45;;;;;;;19.20;76.16;101489.94;5091007;28;20024;-72
2022/07/26 07:10:47;;;;;;;7.80;3.47;;;;;;;19.22;74.06;101483.63;5090911;28;20062;-72
2022/07/26 07:13:12;;;;;;;7.45;3.15;;;;;;;19.45;74.32;101484.25;5089735;28;20115;-72
2022/07/26 07:15:38;;;;;;;8.45;2.80;;;;;;;19.71;71.36;101494.41;5089027;28;20154;-73
2022/07/26 07:18:03;;;;;;;9.65;2.60;;;;;;;19.71;72.81;101491.75;5088256;28;20035;-72
2022/07/26 07:20:28;;;;;;;7.00;2.83;;;;;;;19.75;71.36;101492.44;5089933;28;20031;-72
2022/07/26 07:22:54;;;;;;;5.82;2.70;;;;;;;19.89;71.14;101495.25;5090141;28;20020;-72
2022/07/26 07:25:19;;;;;;;5.57;2.63;;;;;;;20.09;71.93;101502.16;5089560;28;20035;-72
2022/07/26 07:27:44;;;;;;;8.75;3.10;;;;;;;20.42;70.34;101498.63;5090781;28;20028;-72
2022/07/26 07:30:10;;;;;;;8.75;2.50;;;;;;;20.56;69.46;101501.41;5090547;28;20023;-72
2022/07/26 07:32:36;;;;;;;8.32;2.67;;;;;;;20.69;68.38;101497.13;5089031;28;20032;-72
2022/07/26 07:35:02;;;;;;;6.07;2.53;;;;;;;20.90;67.24;101495.09;5090942;28;20013;-73
2022/07/26 07:37:27;;;;;;;5.20;2.38;;;;;;;21.02;65.59;101490.88;5090205;28;20072;-72
2022/07/26 07:39:52;;;;;;;5.03;2.30;;;;;;;20.94;64.94;101499.28;5089356;28;20020;-72
2022/07/26 07:42:18;;;;;;;6.57;2.25;;;;;;;20.66;65.99;101491.16;5090135;28;20398;-73
2022/07/26 07:44:44;;;;;;;5.70;2.55;;;;;;;20.29;66.72;101499.28;5090466;28;20028;-72
2022/07/26 07:47:09;;;;;;;7.15;3.00;;;;;;;20.00;67.62;101506.13;5085117;28;20016;-73
2022/07/26 07:49:35;;;;;;;11.63;2.47;;;;;;;19.73;69.70;101516.34;5088458;28;20024;-72
2022/07/26 07:52:00;;;;;;;10.43;2.53;;;;;;;19.85;70.30;101505.16;5085233;28;20024;-73
2022/07/26 07:54:25;;;;;;;6.50;2.33;;;;;;;20.42;69.02;101504.78;5095165;28;20023;-72
2022/07/26 07:56:53;;;;;;;7.85;2.70;;;;;;;20.79;66.98;101498.31;5094746;28;20047;-73
2022/07/26 07:59:19;;;;;;;7.72;2.55;;;;;;;20.95;64.55;101502.78;5094213;28;20016;-73
2022/07/26 08:01:44;;;;;;;6.28;2.05;;;;;;;21.07;64.76;101507.38;5090850;28;20081;-72
2022/07/26 08:04:10;;;;;;;9.88;2.65;;;;;;;21.08;65.56;101492.31;5094046;28;20028;-73
2022/07/26 08:06:35;;;;;;;4.53;2.72;;;;;;;21.40;64.35;101509.06;5093230;28;20553;-73
2022/07/26 08:09:00;;;;;;;5.20;2.13;;;;;;;21.77;63.54;101496.28;5094950;28;20062;-72
2022/07/26 08:11:26;;;;;;;6.93;2.90;;;;;;;22.02;61.64;101506.25;5092306;28;20024;-72
2022/07/26 08:13:51;;;;;;;4.10;2.65;;;;;;;22.13;61.66;101507.28;5094047;28;20429;-73
2022/07/26 08:16:16;;;;;;;4.07;2.53;;;;;;;21.90;62.62;101519.31;5093706;28;20103;-73
2022/07/26 08:18:42;;;;;;;8.75;3.45;;;;;;;21.40;64.39;101525.81;5096039;28;20032;-72
2022/07/26 08:21:07;;;;;;;6.53;3.28;;;;;;;20.94;68.35;101522.28;5092684;28;20550;-72
2022/07/26 08:23:32;;;;;;;7.70;3.85;;;;;;;20.62;69.61;101538.16;5089399;28;20040;-72
2022/07/26 08:25:58;;;;;;;5.60;2.97;;;;;;;20.39;71.06;101546.44;5092794;28;20106;-73
2022/07/26 08:28:27;;;;;;;3.65;2.10;;;;;;;20.14;72.25;101552.19;5094284;28;20089;-72
2022/07/26 08:30:53;;;;;;;3.00;1.40;;;;;;;19.78;73.48;101556.66;5094566;28;20036;-72
2022/07/26 08:33:18;;;;;;;2.42;1.40;;;;;;;19.56;75.15;101556.84;5093463;28;20085;-72
2022/07/26 08:35:43;;;;;;;1.75;1.20;;;;;;;19.54;75.08;101555.19;5094174;28;20028;-72
2022/07/26 08:38:09;;;;;;;1.88;1.10;;;;;;;19.62;75.03;101561.84;5093834;28;20039;-73
2022/07/26 08:40:34;;;;;;;5.30;1.20;;;;;;;19.67;76.25;101563.41;5091843;28;20023;-72
2022/07/26 08:43:01;;;;;;;2.83;1.10;;;;;;;19.80;75.99;101557.41;5093572;28;20494;-72
2022/07/26 08:45:29;;;;;;;1.98;1.02;;;;;;;19.90;75.21;101562.25;5092798;28;20043;-73
2022/07/26 08:47:55;;;;;;;1.70;0.90;;;;;;;20.04;74.25;101562.38;5092971;28;20639;-73
2022/07/26 08:50:21;;;;;;;1.30;0.88;;;;;;;20.12;72.23;101560.22;5093610;28;20020;-73
2022/07/26 08:52:47;;;;;;;1.35;0.80;;;;;;;20.29;73.07;101562.81;5094119;28;20024;-73
2022/07/26 08:55:19;;;;;;;2.17;0.85;;;;;;;20.87;71.01;101568.63;5105765;28;20024;-73
2022/07/26 08:57:44;;;;;;;0.85;0.70;;;;;;;21.16;68.00;101565.19;5099243;28;20056;-73
2022/07/26 09:00:17;;;;;;;1.48;0.80;;;;;;;21.34;68.22;101573.88;5093634;28;20028;-73
2022/07/26 09:02:43;;;;;;;0.82;0.80;;;;;;;21.32;66.18;101572.25;5093489;28;20036;-73
2022/07/26 09:05:08;;;;;;;2.90;0.90;;;;;;;21.41;66.75;101569.97;5092001;28;20032;-73
2022/07/26 09:07:34;;;;;;;1.85;0.95;;;;;;;21.42;66.97;101555.78;5093359;28;20020;-73
2022/07/26 09:10:07;;;;;;;0.70;0.70;;;;;;;21.41;67.24;101569.97;5093276;28;20027;-73
2022/07/26 09:12:32;;;;;;;0.80;0.80;;;;;;;21.37;64.78;101578.19;5093786;28;20024;-73
2022/07/26 09:14:59;;;;;;;0.93;0.88;;;;;;;21.49;66.44;101567.75;5089718;28;20135;-73
2022/07/26 09:17:41;;;;;;;1.73;0.90;;;;;;;21.71;65.61;101572.66;5085758;28;20485;-73
2022/07/26 09:20:10;;;;;;;2.03;0.93;;;;;;;22.22;62.67;101572.31;5076591;28;20040;-73
2022/07/26 09:22:38;;;;;;;2.15;1.17;;;;;;;22.38;63.10;101572.22;5091151;28;20041;-73
2022/07/26 09:25:19;;;;;;;1.67;1.00;;;;;;;22.57;61.73;101574.63;5093497;28;20441;-73
2022/07/26 09:27:44;;;;;;;3.17;0.80;;;;;;;22.50;59.71;101574.13;5093285;28;20059;-73
2022/07/26 09:30:10;;;;;;;2.83;1.00;;;;;;;22.49;61.52;101576.88;5092449;28;20055;-73
2022/07/26 09:32:36;;;;;;;2.03;1.40;;;;;;;22.27;61.94;101582.66;5093160;28;20062;-73
2022/07/26 09:35:15;;;;;;;2.75;1.30;;;;;;;22.27;63.24;101585.28;5090461;28;20063;-73
2022/07/26 09:37:45;;;;;;;3.13;1.10;;;;;;;21.81;63.66;101588.03;5083014;28;20034;-73
2022/07/26 09:40:14;;;;;;;2.80;1.40;;;;;;;21.26;65.10;101595.56;5085365;28;20032;-73
2022/07/26 09:43:15;;;;;;;3.88;1.13;;;;;;;20.87;67.33;101597.75;5088634;28;20146;-73
2022/07/26 09:45:40;;;;;;;5.47;1.70;;;;;;;20.39;72.44;101604.72;5051208;28;20043;-73
2022/07/26 09:48:10;;;;;;;3.97;1.60;;;;;;;20.36;71.11;101611.03;5090822;28;20036;-73
2022/07/26 09:50:36;;;;;;;4.78;1.60;;;;;;;20.65;70.44;101608.66;5091096;28;20016;-72
2022/07/26 09:53:11;;;;;;;3.33;1.40;;;;;;;21.08;68.17;101615.13;5091671;28;20611;-73
2022/07/26 09:55:43;;;;;;;4.10;1.67;;;;;;;21.56;66.54;101609.84;5092405;28;20024;-74
2022/07/26 09:58:12;;;;;;;6.32;1.90;;;;;;;22.01;63.97;101605.41;5091719;28;20030;-73
2022/07/26 10:00:38;;;;;;;5.22;1.67;;;;;;;22.47;62.86;101611.53;5090102;28;20023;-73
2022/07/26 10:03:03;;;;;;;3.72;1.92;;;;;;;22.67;59.82;101605.81;5091074;28;20044;-73
2022/07/26 10:05:31;;;;;;;5.93;1.85;;;;;;;22.77;60.79;101611.41;5086468;28;20089;-73
2022/07/26 10:07:58;;;;;;;2.45;1.50;;;;;;;22.76;60.85;101612.38;5090336;28;20033;-73
2022/07/26 10:10:30;;;;;;;4.43;1.55;;;;;;;22.37;59.50;101618.34;5087913;28;20904;-74
2022/07/26 10:12:57;;;;;;;3.70;1.40;;;;;;;21.99;60.39;101618.81;5090549;28;20028;-73
2022/07/26 10:15:45;;;;;;;4.93;1.83;;;;;;;21.68;62.69;101631.22;5087480;28;20024;-73
2022/07/26 10:18:36;;;;;;;2.85;1.20;;;;;;;21.26;62.84;101634.47;5090016;28;20028;-73
2022/07/26 10:21:24;;;;;;;1.48;1.00;;;;;;;20.91;64.08;101639.06;5086628;28;20035;-72
2022/07/26 10:23:50;;;;;;;3.63;1.27;;;;;;;20.47;67.81;101642.22;5091413;28;20539;-73
2022/07/26 10:26:30;;;;;;;3.78;1.20;;;;;;;20.30;68.45;101643.09;5085413;28;20123;-73
2022/07/26 10:29:14;;;;;;;2.92;1.10;;;;;;;20.31;68.87;101656.28;5092156;28;20020;-73
2022/07/26 10:31:40;;;;;;;2.88;1.00;;;;;;;20.25;70.29;101659.25;5091945;28;20534;-73
2022/07/26 10:34:05;;;;;;;2.47;1.30;;;;;;;20.19;70.24;101641.03;5086693;28;20120;-73
2022/07/26 10:36:34;;;;;;;1.35;1.02;;;;;;;20.45;71.19;101646.78;5092325;28;20028;-74
2022/07/26 10:39:06;;;;;;;2.78;1.13;;;;;;;20.88;70.60;101645.38;5092232;28;20023;-73
2022/07/26 10:42:02;;;;;;;1.88;1.50;;;;;;;21.53;65.97;101653.31;5092305;28;20020;-72
2022/07/26 10:44:30;;;;;;;2.65;1.40;;;;;;;21.96;63.43;101651.69;5087138;28;20036;-73
2022/07/26 10:47:10;;;;;;;2.55;1.40;;;;;;;22.46;61.98;101652.31;5088319;28;20024;-73
2022/07/26 10:49:40;;;;;;;2.38;1.20;;;;;;;23.06;58.50;101652.16;5091066;28;20028;-73
2022/07/26 10:52:17;;;;;;;2.60;1.00;;;;;;;23.66;57.94;101648.28;5090300;28;20020;-73
2022/07/26 10:54:58;;;;;;;4.10;0.93;;;;;;;24.10;55.57;101647.19;5090930;28;20074;-73
2022/07/26 10:57:25;;;;;;;1.95;0.90;;;;;;;24.05;51.30;101655.47;5091501;28;20052;-73
2022/07/26 10:59:51;;;;;;;2.33;1.10;;;;;;;23.99;52.89;101663.88;5090553;28;20467;-73
2022/07/26 11:02:18;;;;;;;1.92;0.88;;;;;;;24.19;53.14;101657.19;5090803;28;20043;-73
2022/07/26 11:04:43;;;;;;;5.53;1.10;;;;;;;24.28;53.22;101658.38;5089864;28;20483;-74
2022/07/26 11:07:09;;;;;;;1.90;0.80;;;;;;;24.43;53.26;101660.03;5086357;28;20077;-73
2022/07/26 11:09:34;;;;;;;2.17;0.80;;;;;;;24.55;50.17;101660.13;5091231;28;20027;-73
2022/07/26 11:12:20;;;;;;;2.15;1.10;;;;;;;25.03;53.08;101669.16;5090787;28;20024;-73
2022/07/26 11:14:46;;;;;;;1.45;0.82;;;;;;;25.29;50.13;101669.13;5090769;28;20024;-73
2022/07/26 11:17:24;;;;;;;2.05;0.80;;;;;;;25.53;49.58;101677.16;5089220;28;20077;-73
2022/07/26 11:19:50;;;;;;;2.75;1.02;;;;;;;24.75;51.04;101681.81;5090709;28;20024;-73